sensor_id;sensor_type;location;lat;lon;timestamp;pressure;altitude;pressure_sealevel;temperature;humidity
63090;BME280;49174;43.198;27.824;2023-03-04T00:08:08;101774.13;;;6.81;100.00
63090;BME280;49174;43.198;27.824;2023-03-04T03:20:50;101736.53;;;6.91;100.00
63090;BME280;49174;43.198;27.824;2023-03-04T03:42:14;101733.16;;;6.89;100.00
63090;BME280;49174;43.198;27.824;2023-03-04T03:44:40;101736.97;;;6.86;100.00
63090;BME280;49174;43.198;27.824;2023-03-04T03:47:09;101737.38;;;6.91;100.00
63090;BME280;49174;43.198;27.824;2023-03-04T03:55:30;101725.22;;;6.97;100.00
63090;BME280;49174;43.198;27.824;2023-03-04T03:58:02;101726.94;;;6.88;100.00
63090;BME280;49174;43.198;27.824;2023-03-04T04:00:36;101726.66;;;6.91;100.00
63090;BME280;49174;43.198;27.824;2023-03-04T04:20:15;101743.59;;;6.92;100.00
63090;BME280;49174;43.198;27.824;2023-03-04T04:22:42;101742.44;;;6.94;100.00
63090;BME280;49174;43.198;27.824;2023-03-04T04:25:09;101747.53;;;6.88;100.00
63090;BME280;49174;43.198;27.824;2023-03-04T04:27:51;101743.03;;;6.88;100.00
63090;BME280;49174;43.198;27.824;2023-03-04T04:30:18;101738.50;;;6.89;100.00
63090;BME280;49174;43.198;27.824;2023-03-04T04:32:44;101746.41;;;6.90;100.00
63090;BME280;49174;43.198;27.824;2023-03-04T04:35:10;101748.94;;;6.92;100.00
63090;BME280;49174;43.198;27.824;2023-03-04T04:37:36;101745.25;;;6.93;100.00
63090;BME280;49174;43.198;27.824;2023-03-04T04:40:26;101743.59;;;6.92;100.00
63090;BME280;49174;43.198;27.824;2023-03-04T04:43:00;101747.84;;;6.85;100.00
63090;BME280;49174;43.198;27.824;2023-03-04T04:45:26;101753.59;;;6.90;100.00
63090;BME280;49174;43.198;27.824;2023-03-04T04:56:50;101780.03;;;6.85;100.00
63090;BME280;49174;43.198;27.824;2023-03-04T06:04:04;101802.72;;;7.28;100.00
63090;BME280;49174;43.198;27.824;2023-03-04T06:06:29;101801.69;;;7.38;100.00
63090;BME280;49174;43.198;27.824;2023-03-04T06:32:37;101814.75;;;7.51;100.00
63090;BME280;49174;43.198;27.824;2023-03-04T07:15:33;101769.03;;;7.79;100.00
63090;BME280;49174;43.198;27.824;2023-03-04T07:18:06;101776.16;;;7.88;100.00
63090;BME280;49174;43.198;27.824;2023-03-04T07:29:00;101763.19;;;8.01;100.00
63090;BME280;49174;43.198;27.824;2023-03-04T07:31:29;101759.53;;;8.02;100.00
63090;BME280;49174;43.198;27.824;2023-03-04T07:34:04;101761.03;;;8.05;100.00
63090;BME280;49174;43.198;27.824;2023-03-04T07:36:30;101767.03;;;8.17;100.00
63090;BME280;49174;43.198;27.824;2023-03-04T07:38:56;101758.38;;;8.31;99.67
63090;BME280;49174;43.198;27.824;2023-03-04T07:41:24;101757.63;;;8.39;98.68
63090;BME280;49174;43.198;27.824;2023-03-04T07:43:50;101757.69;;;8.47;97.50
63090;BME280;49174;43.198;27.824;2023-03-04T07:46:17;101760.53;;;8.45;96.90
63090;BME280;49174;43.198;27.824;2023-03-04T07:48:43;101755.84;;;8.47;97.03
63090;BME280;49174;43.198;27.824;2023-03-04T07:51:20;101763.41;;;8.52;96.36
63090;BME280;49174;43.198;27.824;2023-03-04T07:53:48;101754.88;;;8.57;95.33
63090;BME280;49174;43.198;27.824;2023-03-04T07:56:20;101755.25;;;8.62;93.37
63090;BME280;49174;43.198;27.824;2023-03-04T07:58:46;101752.63;;;8.70;93.88
63090;BME280;49174;43.198;27.824;2023-03-04T08:01:18;101757.19;;;8.78;93.60
63090;BME280;49174;43.198;27.824;2023-03-04T08:03:44;101753.88;;;8.84;93.45
63090;BME280;49174;43.198;27.824;2023-03-04T08:06:11;101755.75;;;8.91;93.91
63090;BME280;49174;43.198;27.824;2023-03-04T08:08:37;101752.75;;;8.94;93.00
63090;BME280;49174;43.198;27.824;2023-03-04T08:11:05;101756.78;;;8.99;92.08
63090;BME280;49174;43.198;27.824;2023-03-04T08:13:30;101753.44;;;9.05;93.17
63090;BME280;49174;43.198;27.824;2023-03-04T08:15:56;101747.75;;;9.16;93.42
63090;BME280;49174;43.198;27.824;2023-03-04T08:18:22;101748.66;;;9.33;93.26
63090;BME280;49174;43.198;27.824;2023-03-04T08:20:59;101746.31;;;9.38;90.34
63090;BME280;49174;43.198;27.824;2023-03-04T08:23:26;101751.19;;;9.34;88.93
63090;BME280;49174;43.198;27.824;2023-03-04T08:25:51;101741.44;;;9.42;89.25
63090;BME280;49174;43.198;27.824;2023-03-04T08:28:17;101745.84;;;9.51;89.13
63090;BME280;49174;43.198;27.824;2023-03-04T08:30:43;101747.38;;;9.53;86.34
63090;BME280;49174;43.198;27.824;2023-03-04T08:33:09;101747.72;;;9.50;85.65
63090;BME280;49174;43.198;27.824;2023-03-04T08:35:37;101749.88;;;9.47;87.28
63090;BME280;49174;43.198;27.824;2023-03-04T08:38:04;101746.50;;;9.45;86.89
63090;BME280;49174;43.198;27.824;2023-03-04T08:40:30;101752.06;;;9.51;88.36
63090;BME280;49174;43.198;27.824;2023-03-04T08:42:55;101746.22;;;9.64;88.66
63090;BME280;49174;43.198;27.824;2023-03-04T08:45:21;101744.03;;;9.76;87.17
63090;BME280;49174;43.198;27.824;2023-03-04T08:47:46;101739.16;;;9.79;86.62
63090;BME280;49174;43.198;27.824;2023-03-04T08:50:12;101739.50;;;9.84;86.68
63090;BME280;49174;43.198;27.824;2023-03-04T08:52:38;101743.38;;;9.90;86.64
63090;BME280;49174;43.198;27.824;2023-03-04T08:55:03;101730.91;;;9.89;85.54
63090;BME280;49174;43.198;27.824;2023-03-04T08:57:29;101726.34;;;9.98;85.49
63090;BME280;49174;43.198;27.824;2023-03-04T08:59:54;101723.31;;;10.01;83.54
63090;BME280;49174;43.198;27.824;2023-03-04T09:02:20;101730.03;;;10.05;81.98
63090;BME280;49174;43.198;27.824;2023-03-04T09:04:45;101728.72;;;10.09;84.12
63090;BME280;49174;43.198;27.824;2023-03-04T09:07:11;101727.53;;;10.12;82.19
63090;BME280;49174;43.198;27.824;2023-03-04T09:09:38;101723.97;;;10.11;83.86
63090;BME280;49174;43.198;27.824;2023-03-04T09:12:04;101726.66;;;10.19;80.90
63090;BME280;49174;43.198;27.824;2023-03-04T09:14:29;101719.28;;;10.29;80.24
63090;BME280;49174;43.198;27.824;2023-03-04T09:16:57;101724.66;;;10.29;80.50
63090;BME280;49174;43.198;27.824;2023-03-04T09:19:22;101717.94;;;10.34;80.98
63090;BME280;49174;43.198;27.824;2023-03-04T09:21:48;101709.16;;;10.40;79.79
63090;BME280;49174;43.198;27.824;2023-03-04T09:24:14;101711.31;;;10.44;79.24
63090;BME280;49174;43.198;27.824;2023-03-04T09:26:39;101707.41;;;10.55;80.90
63090;BME280;49174;43.198;27.824;2023-03-04T09:29:05;101708.19;;;10.72;79.24
63090;BME280;49174;43.198;27.824;2023-03-04T09:31:30;101695.50;;;10.81;78.79
63090;BME280;49174;43.198;27.824;2023-03-04T09:33:57;101693.63;;;10.89;78.01
63090;BME280;49174;43.198;27.824;2023-03-04T09:36:23;101693.56;;;10.98;75.10
63090;BME280;49174;43.198;27.824;2023-03-04T09:38:49;101693.88;;;11.03;75.61
63090;BME280;49174;43.198;27.824;2023-03-04T09:41:17;101683.22;;;11.09;74.96
63090;BME280;49174;43.198;27.824;2023-03-04T09:43:45;101672.22;;;11.11;76.40
63090;BME280;49174;43.198;27.824;2023-03-04T09:46:15;101674.09;;;11.10;79.33
63090;BME280;49174;43.198;27.824;2023-03-04T09:48:50;101671.03;;;11.13;77.28
63090;BME280;49174;43.198;27.824;2023-03-04T09:51:20;101672.13;;;11.04;76.18
63090;BME280;49174;43.198;27.824;2023-03-04T09:54:12;101668.06;;;11.00;77.71
63090;BME280;49174;43.198;27.824;2023-03-04T09:56:40;101661.78;;;11.08;79.36
63090;BME280;49174;43.198;27.824;2023-03-04T09:59:30;101661.25;;;11.12;74.30
63090;BME280;49174;43.198;27.824;2023-03-04T10:02:06;101665.13;;;11.18;77.18
63090;BME280;49174;43.198;27.824;2023-03-04T10:04:47;101656.06;;;11.34;75.41
63090;BME280;49174;43.198;27.824;2023-03-04T10:07:25;101653.53;;;11.55;78.81
63090;BME280;49174;43.198;27.824;2023-03-04T10:09:58;101654.06;;;11.74;76.93
63090;BME280;49174;43.198;27.824;2023-03-04T10:12:28;101647.38;;;11.84;75.49
63090;BME280;49174;43.198;27.824;2023-03-04T10:15:03;101649.47;;;11.97;73.63
63090;BME280;49174;43.198;27.824;2023-03-04T10:20:21;101633.75;;;12.01;74.78
63090;BME280;49174;43.198;27.824;2023-03-04T10:22:55;101630.38;;;12.14;75.12
63090;BME280;49174;43.198;27.824;2023-03-04T10:25:26;101618.00;;;12.34;76.98
63090;BME280;49174;43.198;27.824;2023-03-04T10:27:58;101626.75;;;12.36;70.81
63090;BME280;49174;43.198;27.824;2023-03-04T10:31:31;101622.66;;;12.40;70.89
63090;BME280;49174;43.198;27.824;2023-03-04T10:33:38;101620.59;;;12.57;72.85
63090;BME280;49174;43.198;27.824;2023-03-04T10:36:20;101618.06;;;12.70;68.73
63090;BME280;49174;43.198;27.824;2023-03-04T10:41:27;101601.88;;;12.77;69.08
63090;BME280;49174;43.198;27.824;2023-03-04T10:46:27;101594.47;;;12.86;67.21
63090;BME280;49174;43.198;27.824;2023-03-04T10:48:53;101590.72;;;12.87;67.42
63090;BME280;49174;43.198;27.824;2023-03-04T10:51:27;101577.81;;;12.89;67.82
63090;BME280;49174;43.198;27.824;2023-03-04T10:54:45;101579.19;;;13.00;66.63
63090;BME280;49174;43.198;27.824;2023-03-04T10:56:57;101575.78;;;13.12;67.54
63090;BME280;49174;43.198;27.824;2023-03-04T10:59:43;101573.53;;;13.16;66.13
63090;BME280;49174;43.198;27.824;2023-03-04T11:02:15;101556.88;;;13.19;69.83
63090;BME280;49174;43.198;27.824;2023-03-04T11:04:42;101552.72;;;13.23;68.73
63090;BME280;49174;43.198;27.824;2023-03-04T11:12:32;101537.00;;;13.55;65.54
63090;BME280;49174;43.198;27.824;2023-03-04T11:14:58;101532.81;;;13.52;63.69
63090;BME280;49174;43.198;27.824;2023-03-04T12:59:46;101451.78;;;13.36;63.46
63090;BME280;49174;43.198;27.824;2023-03-04T13:15:38;101432.38;;;13.32;63.71
63090;BME280;49174;43.198;27.824;2023-03-04T13:23:46;101417.47;;;13.50;62.25
63090;BME280;49174;43.198;27.824;2023-03-04T13:26:28;101416.31;;;13.66;61.88
63090;BME280;49174;43.198;27.824;2023-03-04T13:32:00;101402.47;;;14.02;62.20
63090;BME280;49174;43.198;27.824;2023-03-04T13:34:55;101398.72;;;14.03;60.91
63090;BME280;49174;43.198;27.824;2023-03-04T13:37:33;101392.88;;;14.06;61.19
63090;BME280;49174;43.198;27.824;2023-03-04T13:45:34;101386.88;;;14.37;61.09
63090;BME280;49174;43.198;27.824;2023-03-04T13:53:32;101375.03;;;14.65;58.85
63090;BME280;49174;43.198;27.824;2023-03-04T14:06:43;101352.59;;;14.03;61.17
63090;BME280;49174;43.198;27.824;2023-03-04T14:14:53;101345.22;;;13.77;62.00
63090;BME280;49174;43.198;27.824;2023-03-04T14:17:27;101348.34;;;13.80;61.80
63090;BME280;49174;43.198;27.824;2023-03-04T14:19:55;101340.78;;;13.69;62.48
63090;BME280;49174;43.198;27.824;2023-03-04T14:22:37;101342.22;;;13.58;62.31
63090;BME280;49174;43.198;27.824;2023-03-04T14:25:14;101345.72;;;13.52;63.64
63090;BME280;49174;43.198;27.824;2023-03-04T14:27:44;101337.38;;;13.54;64.33
63090;BME280;49174;43.198;27.824;2023-03-04T14:33:07;101332.84;;;13.68;63.66
63090;BME280;49174;43.198;27.824;2023-03-04T14:35:33;101337.78;;;13.16;66.56
63090;BME280;49174;43.198;27.824;2023-03-04T15:05:07;101324.03;;;12.12;73.61
63090;BME280;49174;43.198;27.824;2023-03-04T15:07:35;101323.03;;;11.76;74.94
63090;BME280;49174;43.198;27.824;2023-03-04T15:10:03;101318.50;;;11.47;76.90
63090;BME280;49174;43.198;27.824;2023-03-04T15:12:33;101318.34;;;11.19;77.44
63090;BME280;49174;43.198;27.824;2023-03-04T15:15:29;101323.75;;;11.04;77.02
63090;BME280;49174;43.198;27.824;2023-03-04T15:17:59;101316.94;;;10.79;78.08
63090;BME280;49174;43.198;27.824;2023-03-04T15:20:28;101318.53;;;10.50;80.28
63090;BME280;49174;43.198;27.824;2023-03-04T15:48:53;101304.94;;;10.20;83.23
63090;BME280;49174;43.198;27.824;2023-03-04T16:13:49;101287.56;;;9.46;87.48
63090;BME280;49174;43.198;27.824;2023-03-04T16:19:11;101286.22;;;9.42;87.28
63090;BME280;49174;43.198;27.824;2023-03-04T16:21:36;101285.28;;;9.34;87.22
63090;BME280;49174;43.198;27.824;2023-03-04T16:24:02;101288.31;;;9.31;88.59
63090;BME280;49174;43.198;27.824;2023-03-04T16:26:29;101294.69;;;9.30;88.46
63090;BME280;49174;43.198;27.824;2023-03-04T16:28:55;101290.97;;;9.39;87.61
63090;BME280;49174;43.198;27.824;2023-03-04T16:31:21;101289.28;;;9.38;86.68
63090;BME280;49174;43.198;27.824;2023-03-04T16:33:47;101296.06;;;9.26;87.27
63090;BME280;49174;43.198;27.824;2023-03-04T16:38:44;101286.19;;;9.10;87.96
63090;BME280;49174;43.198;27.824;2023-03-04T16:41:12;101288.75;;;9.04;88.42
63090;BME280;49174;43.198;27.824;2023-03-04T16:43:40;101304.59;;;8.90;88.02
63090;BME280;49174;43.198;27.824;2023-03-04T16:46:06;101303.63;;;8.91;88.79
63090;BME280;49174;43.198;27.824;2023-03-04T16:48:32;101308.13;;;8.91;88.88
63090;BME280;49174;43.198;27.824;2023-03-04T16:51:02;101300.75;;;8.85;88.96
63090;BME280;49174;43.198;27.824;2023-03-04T16:53:34;101304.97;;;8.79;89.04
63090;BME280;49174;43.198;27.824;2023-03-04T16:56:04;101310.03;;;8.74;89.51
63090;BME280;49174;43.198;27.824;2023-03-04T16:58:30;101292.34;;;8.80;88.45
63090;BME280;49174;43.198;27.824;2023-03-04T17:00:56;101303.66;;;8.75;88.38
63090;BME280;49174;43.198;27.824;2023-03-04T17:03:21;101300.63;;;8.62;88.47
63090;BME280;49174;43.198;27.824;2023-03-04T17:05:47;101303.19;;;8.47;89.26
63090;BME280;49174;43.198;27.824;2023-03-04T17:08:13;101300.13;;;8.34;89.51
63090;BME280;49174;43.198;27.824;2023-03-04T17:10:38;101302.97;;;8.24;90.22
63090;BME280;49174;43.198;27.824;2023-03-04T17:13:04;101298.09;;;8.11;90.86
63090;BME280;49174;43.198;27.824;2023-03-04T17:15:30;101300.25;;;8.07;90.89
63090;BME280;49174;43.198;27.824;2023-03-04T17:17:56;101296.41;;;8.02;91.02
63090;BME280;49174;43.198;27.824;2023-03-04T17:20:21;101302.63;;;7.94;91.63
63090;BME280;49174;43.198;27.824;2023-03-04T17:22:48;101289.19;;;7.94;91.29
63090;BME280;49174;43.198;27.824;2023-03-04T17:25:14;101300.44;;;7.90;91.46
63090;BME280;49174;43.198;27.824;2023-03-04T17:27:40;101296.88;;;7.81;91.95
63090;BME280;49174;43.198;27.824;2023-03-04T17:30:07;101299.06;;;7.77;91.84
63090;BME280;49174;43.198;27.824;2023-03-04T17:32:33;101300.72;;;7.70;92.58
63090;BME280;49174;43.198;27.824;2023-03-04T17:34:59;101305.34;;;7.52;92.24
63090;BME280;49174;43.198;27.824;2023-03-04T17:37:25;101297.50;;;7.50;94.08
63090;BME280;49174;43.198;27.824;2023-03-04T17:39:51;101308.19;;;7.42;94.71
63090;BME280;49174;43.198;27.824;2023-03-04T17:42:16;101295.75;;;7.33;94.73
63090;BME280;49174;43.198;27.824;2023-03-04T17:44:43;101309.81;;;7.27;94.70
63090;BME280;49174;43.198;27.824;2023-03-04T17:47:10;101303.28;;;7.29;94.04
63090;BME280;49174;43.198;27.824;2023-03-04T17:49:36;101305.41;;;7.18;93.27
63090;BME280;49174;43.198;27.824;2023-03-04T17:52:03;101304.25;;;7.20;92.84
63090;BME280;49174;43.198;27.824;2023-03-04T17:54:30;101312.59;;;7.09;91.30
63090;BME280;49174;43.198;27.824;2023-03-04T17:56:55;101317.91;;;7.01;92.45
63090;BME280;49174;43.198;27.824;2023-03-04T17:59:21;101316.34;;;6.90;92.67
63090;BME280;49174;43.198;27.824;2023-03-04T18:01:46;101315.31;;;6.83;92.86
63090;BME280;49174;43.198;27.824;2023-03-04T18:04:14;101313.72;;;6.72;93.70
63090;BME280;49174;43.198;27.824;2023-03-04T18:06:40;101317.19;;;6.64;94.50
63090;BME280;49174;43.198;27.824;2023-03-04T18:09:06;101313.34;;;6.67;94.29
63090;BME280;49174;43.198;27.824;2023-03-04T18:11:34;101316.34;;;6.64;93.32
63090;BME280;49174;43.198;27.824;2023-03-04T18:14:00;101314.44;;;6.56;93.55
63090;BME280;49174;43.198;27.824;2023-03-04T18:16:25;101318.06;;;6.47;94.58
63090;BME280;49174;43.198;27.824;2023-03-04T18:18:55;101315.84;;;6.42;94.93
63090;BME280;49174;43.198;27.824;2023-03-04T18:21:24;101315.00;;;6.42;94.75
63090;BME280;49174;43.198;27.824;2023-03-04T18:23:50;101313.69;;;6.46;95.35
63090;BME280;49174;43.198;27.824;2023-03-04T18:26:16;101309.97;;;6.39;94.35
63090;BME280;49174;43.198;27.824;2023-03-04T18:28:42;101321.75;;;6.28;94.57
63090;BME280;49174;43.198;27.824;2023-03-04T18:31:07;101313.50;;;6.21;95.45
63090;BME280;49174;43.198;27.824;2023-03-04T18:33:35;101318.16;;;6.19;94.57
63090;BME280;49174;43.198;27.824;2023-03-04T18:36:03;101314.47;;;6.20;94.48
63090;BME280;49174;43.198;27.824;2023-03-04T18:38:29;101317.09;;;6.12;94.35
63090;BME280;49174;43.198;27.824;2023-03-04T18:41:04;101318.25;;;6.10;93.36
63090;BME280;49174;43.198;27.824;2023-03-04T18:43:30;101323.59;;;6.10;92.87
63090;BME280;49174;43.198;27.824;2023-03-04T18:46:07;101318.22;;;5.92;92.98
63090;BME280;49174;43.198;27.824;2023-03-04T18:48:38;101318.66;;;5.87;95.06
63090;BME280;49174;43.198;27.824;2023-03-04T18:51:06;101321.66;;;5.84;96.26
63090;BME280;49174;43.198;27.824;2023-03-04T18:53:32;101318.22;;;5.92;95.02
63090;BME280;49174;43.198;27.824;2023-03-04T18:56:04;101323.34;;;5.85;94.97
63090;BME280;49174;43.198;27.824;2023-03-04T18:58:34;101322.31;;;5.68;93.84
63090;BME280;49174;43.198;27.824;2023-03-04T19:01:03;101325.66;;;5.52;94.93
63090;BME280;49174;43.198;27.824;2023-03-04T19:03:30;101323.03;;;5.43;95.16
63090;BME280;49174;43.198;27.824;2023-03-04T19:05:57;101324.44;;;5.47;95.50
63090;BME280;49174;43.198;27.824;2023-03-04T19:08:23;101320.22;;;5.44;96.18
63090;BME280;49174;43.198;27.824;2023-03-04T19:10:49;101323.19;;;5.41;95.80
63090;BME280;49174;43.198;27.824;2023-03-04T19:13:14;101327.44;;;5.34;96.39
63090;BME280;49174;43.198;27.824;2023-03-04T19:15:43;101334.81;;;5.22;96.45
63090;BME280;49174;43.198;27.824;2023-03-04T19:18:08;101334.59;;;5.15;98.25
63090;BME280;49174;43.198;27.824;2023-03-04T19:20:34;101335.56;;;5.14;98.37
63090;BME280;49174;43.198;27.824;2023-03-04T19:23:02;101334.59;;;5.15;97.72
63090;BME280;49174;43.198;27.824;2023-03-04T19:25:30;101330.75;;;5.18;96.43
63090;BME280;49174;43.198;27.824;2023-03-04T19:27:56;101334.72;;;5.14;96.84
63090;BME280;49174;43.198;27.824;2023-03-04T19:30:22;101336.16;;;5.08;95.81
63090;BME280;49174;43.198;27.824;2023-03-04T19:32:48;101326.88;;;5.03;96.75
63090;BME280;49174;43.198;27.824;2023-03-04T19:35:15;101328.44;;;4.96;96.65
63090;BME280;49174;43.198;27.824;2023-03-04T19:37:40;101331.28;;;4.84;97.45
63090;BME280;49174;43.198;27.824;2023-03-04T19:40:06;101331.47;;;4.73;98.31
63090;BME280;49174;43.198;27.824;2023-03-04T19:42:32;101335.13;;;4.62;99.07
63090;BME280;49174;43.198;27.824;2023-03-04T19:44:58;101334.75;;;4.57;99.91
63090;BME280;49174;43.198;27.824;2023-03-04T19:47:26;101331.66;;;4.52;100.00
63090;BME280;49174;43.198;27.824;2023-03-04T19:49:51;101324.34;;;4.54;99.67
63090;BME280;49174;43.198;27.824;2023-03-04T19:52:17;101329.41;;;4.47;98.30
63090;BME280;49174;43.198;27.824;2023-03-04T19:54:43;101332.22;;;4.36;98.01
63090;BME280;49174;43.198;27.824;2023-03-04T19:57:08;101329.69;;;4.25;98.17
63090;BME280;49174;43.198;27.824;2023-03-04T19:59:34;101333.34;;;4.14;98.36
63090;BME280;49174;43.198;27.824;2023-03-04T20:02:00;101330.97;;;4.01;98.95
63090;BME280;49174;43.198;27.824;2023-03-04T20:04:26;101326.16;;;3.95;100.00
63090;BME280;49174;43.198;27.824;2023-03-04T20:06:51;101336.44;;;3.90;100.00
63090;BME280;49174;43.198;27.824;2023-03-04T20:09:17;101321.69;;;3.96;100.00
63090;BME280;49174;43.198;27.824;2023-03-04T20:11:44;101322.25;;;3.99;100.00
63090;BME280;49174;43.198;27.824;2023-03-04T20:14:10;101318.19;;;4.05;100.00
63090;BME280;49174;43.198;27.824;2023-03-04T20:16:36;101315.78;;;4.12;100.00
63090;BME280;49174;43.198;27.824;2023-03-04T20:19:01;101320.84;;;4.15;100.00
63090;BME280;49174;43.198;27.824;2023-03-04T20:21:30;101314.38;;;4.27;100.00
63090;BME280;49174;43.198;27.824;2023-03-04T20:23:57;101302.56;;;4.30;100.00
63090;BME280;49174;43.198;27.824;2023-03-04T20:26:22;101302.69;;;4.28;100.00
63090;BME280;49174;43.198;27.824;2023-03-04T20:28:49;101299.47;;;4.15;98.89
63090;BME280;49174;43.198;27.824;2023-03-04T20:33:45;101300.03;;;3.70;99.40
63090;BME280;49174;43.198;27.824;2023-03-04T20:36:15;101292.44;;;3.75;100.00
63090;BME280;49174;43.198;27.824;2023-03-04T20:38:41;101290.50;;;3.77;100.00
63090;BME280;49174;43.198;27.824;2023-03-04T20:41:06;101287.53;;;3.80;100.00
63090;BME280;49174;43.198;27.824;2023-03-04T20:43:32;101289.38;;;3.79;100.00
63090;BME280;49174;43.198;27.824;2023-03-04T20:46:27;101286.97;;;3.76;100.00
63090;BME280;49174;43.198;27.824;2023-03-04T20:49:01;101286.41;;;3.83;100.00
63090;BME280;49174;43.198;27.824;2023-03-04T20:51:31;101278.81;;;3.78;100.00
63090;BME280;49174;43.198;27.824;2023-03-04T20:53:56;101276.28;;;3.67;100.00
63090;BME280;49174;43.198;27.824;2023-03-04T20:56:23;101279.38;;;3.72;100.00
63090;BME280;49174;43.198;27.824;2023-03-04T20:58:50;101267.16;;;3.69;100.00
63090;BME280;49174;43.198;27.824;2023-03-04T21:01:16;101269.97;;;3.77;100.00
63090;BME280;49174;43.198;27.824;2023-03-04T21:03:42;101273.22;;;3.71;100.00
63090;BME280;49174;43.198;27.824;2023-03-04T21:06:10;101260.69;;;3.72;100.00
63090;BME280;49174;43.198;27.824;2023-03-04T21:08:37;101261.09;;;3.67;100.00
63090;BME280;49174;43.198;27.824;2023-03-04T21:11:03;101258.44;;;3.57;100.00
63090;BME280;49174;43.198;27.824;2023-03-04T21:13:31;101255.19;;;3.44;100.00
63090;BME280;49174;43.198;27.824;2023-03-04T21:15:57;101251.25;;;3.29;100.00
63090;BME280;49174;43.198;27.824;2023-03-04T21:18:24;101253.75;;;3.21;100.00
63090;BME280;49174;43.198;27.824;2023-03-04T21:20:50;101252.03;;;3.20;100.00
63090;BME280;49174;43.198;27.824;2023-03-04T21:23:18;101245.03;;;3.19;100.00
63090;BME280;49174;43.198;27.824;2023-03-04T21:25:47;101245.59;;;3.22;100.00
63090;BME280;49174;43.198;27.824;2023-03-04T21:28:13;101241.81;;;3.25;100.00
63090;BME280;49174;43.198;27.824;2023-03-04T21:30:39;101245.75;;;3.21;100.00
63090;BME280;49174;43.198;27.824;2023-03-04T21:33:10;101250.09;;;3.22;100.00
63090;BME280;49174;43.198;27.824;2023-03-04T21:35:37;101241.09;;;3.23;100.00
63090;BME280;49174;43.198;27.824;2023-03-04T21:38:03;101249.69;;;3.26;100.00
63090;BME280;49174;43.198;27.824;2023-03-04T21:40:28;101253.63;;;3.42;100.00
63090;BME280;49174;43.198;27.824;2023-03-04T21:42:54;101246.34;;;3.53;100.00
63090;BME280;49174;43.198;27.824;2023-03-04T21:45:19;101241.31;;;3.60;100.00
63090;BME280;49174;43.198;27.824;2023-03-04T21:47:45;101232.72;;;3.56;100.00
63090;BME280;49174;43.198;27.824;2023-03-04T21:50:10;101232.72;;;3.56;100.00
63090;BME280;49174;43.198;27.824;2023-03-04T21:52:36;101238.63;;;3.50;100.00
63090;BME280;49174;43.198;27.824;2023-03-04T21:55:02;101240.03;;;3.54;100.00
63090;BME280;49174;43.198;27.824;2023-03-04T21:57:28;101247.09;;;3.65;100.00
63090;BME280;49174;43.198;27.824;2023-03-04T21:59:53;101230.22;;;3.74;100.00
63090;BME280;49174;43.198;27.824;2023-03-04T22:02:20;101238.63;;;3.70;100.00
63090;BME280;49174;43.198;27.824;2023-03-04T22:04:46;101227.13;;;3.60;100.00
63090;BME280;49174;43.198;27.824;2023-03-04T22:07:12;101225.72;;;3.55;100.00
63090;BME280;49174;43.198;27.824;2023-03-04T22:09:38;101226.44;;;3.57;100.00
63090;BME280;49174;43.198;27.824;2023-03-04T22:12:04;101231.75;;;3.57;100.00
63090;BME280;49174;43.198;27.824;2023-03-04T22:14:29;101222.34;;;3.73;100.00
63090;BME280;49174;43.198;27.824;2023-03-04T22:16:56;101227.00;;;3.71;100.00
63090;BME280;49174;43.198;27.824;2023-03-04T22:19:26;101225.00;;;3.73;100.00
63090;BME280;49174;43.198;27.824;2023-03-04T22:21:54;101216.19;;;3.63;100.00
63090;BME280;49174;43.198;27.824;2023-03-04T22:24:19;101219.50;;;3.45;100.00
63090;BME280;49174;43.198;27.824;2023-03-04T22:26:45;101212.34;;;3.36;100.00
63090;BME280;49174;43.198;27.824;2023-03-04T22:29:10;101219.25;;;3.29;100.00
63090;BME280;49174;43.198;27.824;2023-03-04T22:31:36;101216.81;;;3.26;100.00
63090;BME280;49174;43.198;27.824;2023-03-04T22:34:11;101213.34;;;3.35;100.00
63090;BME280;49174;43.198;27.824;2023-03-04T22:36:40;101216.97;;;3.34;100.00
63090;BME280;49174;43.198;27.824;2023-03-04T22:39:08;101218.66;;;3.25;100.00
63090;BME280;49174;43.198;27.824;2023-03-04T22:41:34;101222.31;;;3.24;100.00
63090;BME280;49174;43.198;27.824;2023-03-04T22:44:00;101214.88;;;3.28;100.00
63090;BME280;49174;43.198;27.824;2023-03-04T22:46:29;101211.38;;;3.18;100.00
63090;BME280;49174;43.198;27.824;2023-03-04T22:48:57;101200.53;;;3.09;100.00
63090;BME280;49174;43.198;27.824;2023-03-04T22:51:24;101196.16;;;3.08;100.00
63090;BME280;49174;43.198;27.824;2023-03-04T22:53:51;101199.81;;;3.07;100.00
63090;BME280;49174;43.198;27.824;2023-03-04T22:56:17;101199.78;;;2.98;100.00
63090;BME280;49174;43.198;27.824;2023-03-04T22:58:44;101205.38;;;2.85;100.00
63090;BME280;49174;43.198;27.824;2023-03-04T23:01:10;101202.25;;;2.80;100.00
63090;BME280;49174;43.198;27.824;2023-03-04T23:03:37;101205.19;;;2.77;100.00
63090;BME280;49174;43.198;27.824;2023-03-04T23:06:09;101197.06;;;2.78;100.00
63090;BME280;49174;43.198;27.824;2023-03-04T23:08:37;101203.16;;;2.90;100.00
63090;BME280;49174;43.198;27.824;2023-03-04T23:11:12;101200.38;;;3.01;100.00
63090;BME280;49174;43.198;27.824;2023-03-04T23:13:38;101200.09;;;3.04;100.00
63090;BME280;49174;43.198;27.824;2023-03-04T23:16:06;101199.81;;;3.17;100.00
63090;BME280;49174;43.198;27.824;2023-03-04T23:18:33;101191.16;;;3.25;100.00
63090;BME280;49174;43.198;27.824;2023-03-04T23:21:06;101195.09;;;3.21;100.00
63090;BME280;49174;43.198;27.824;2023-03-04T23:23:32;101192.53;;;3.19;100.00
63090;BME280;49174;43.198;27.824;2023-03-04T23:25:58;101190.28;;;3.14;100.00